createdAt,value
2022-11-21T00:04:54.022Z,29.47
2022-11-21T00:09:58.892Z,27.23
2022-11-21T00:15:05.876Z,27.73
2022-11-21T00:20:08.086Z,26.70
2022-11-21T00:25:12.604Z,24.33
2022-11-21T00:30:14.797Z,27.87
2022-11-21T00:35:16.575Z,28.50
2022-11-21T00:40:18.648Z,27.17
2022-11-21T00:45:24.508Z,29.07
2022-11-21T00:50:26.659Z,27.23
2022-11-21T00:55:31.091Z,25.00
2022-11-21T01:00:32.857Z,27.10
2022-11-21T01:05:34.886Z,31.27
2022-11-21T01:10:38.855Z,33.43
2022-11-21T01:15:45.359Z,28.50
2022-11-21T01:20:55.388Z,29.05
2022-11-21T01:26:10.113Z,27.47
2022-11-21T01:31:23.237Z,31.43
2022-11-21T01:36:32.181Z,33.47
2022-11-21T01:41:39.398Z,29.83
2022-11-21T01:46:41.119Z,29.33
2022-11-21T01:52:04.545Z,31.07
2022-11-21T01:57:13.952Z,44.10
2022-11-21T02:02:20.839Z,32.33
2022-11-21T02:07:30.699Z,37.10
2022-11-21T02:12:42.772Z,43.73
2022-11-21T02:17:46.818Z,37.80
2022-11-21T02:22:54.655Z,30.97
2022-11-21T02:28:01.645Z,34.07
2022-11-21T02:33:06.226Z,39.90
2022-11-21T02:38:16.182Z,46.23
2022-11-21T02:43:26.011Z,45.03
2022-11-21T02:48:32.268Z,34.67
2022-11-21T02:53:37.245Z,36.77
2022-11-21T02:58:41.437Z,45.37
2022-11-21T03:03:45.276Z,35.70
2022-11-21T03:08:46.931Z,41.03
2022-11-21T03:13:48.795Z,42.70
2022-11-21T03:18:52.537Z,33.27
2022-11-21T03:23:56.796Z,32.20
2022-11-21T03:28:58.486Z,38.10
2022-11-21T03:34:00.177Z,40.30
2022-11-21T03:39:04.651Z,38.97
2022-11-21T03:44:08.430Z,39.03
2022-11-21T03:49:10.660Z,38.67
2022-11-21T03:54:12.502Z,38.47
2022-11-21T03:59:18.997Z,40.60
2022-11-21T04:04:22.966Z,33.40
2022-11-21T04:09:25.533Z,41.13
2022-11-21T04:14:27.384Z,35.17
2022-11-21T04:19:33.793Z,46.23
2022-11-21T04:24:35.527Z,38.57
2022-11-21T04:29:38.289Z,39.07
2022-11-21T04:34:42.451Z,37.60
2022-11-21T04:39:44.311Z,35.30
2022-11-21T04:44:48.264Z,40.33
2022-11-21T04:49:53.242Z,42.77
2022-11-21T04:54:57.434Z,39.57
2022-11-21T05:00:01.802Z,38.53
2022-11-21T05:05:04.158Z,45.83
2022-11-21T05:10:08.972Z,39.67
2022-11-21T05:15:13.055Z,43.70
2022-11-21T05:20:19.999Z,44.57
2022-11-21T05:25:21.678Z,42.57
2022-11-21T05:30:32.156Z,47.23
2022-11-21T05:35:43.473Z,44.83
2022-11-21T05:40:45.601Z,42.90
2022-11-21T05:45:51.307Z,41.27
2022-11-21T05:50:55.390Z,43.53
2022-11-21T05:56:11.956Z,41.90
2022-11-21T06:01:15.116Z,43.77
2022-11-21T06:06:23.697Z,47.27
2022-11-21T06:11:28.411Z,41.23
2022-11-21T06:16:32.590Z,40.43
2022-11-21T06:21:37.456Z,44.33
2022-11-21T06:26:39.184Z,46.23
2022-11-21T06:31:40.855Z,42.93
2022-11-21T06:36:45.011Z,35.00
2022-11-21T06:41:51.222Z,43.43
2022-11-21T06:46:53.070Z,42.10
2022-11-21T06:51:54.796Z,41.97
2022-11-21T06:57:01.614Z,43.30
2022-11-21T07:02:03.316Z,41.17
2022-11-21T07:07:07.493Z,51.50
2022-11-21T07:12:30.963Z,46.90
2022-11-21T07:17:34.869Z,47.53
2022-11-21T07:22:39.353Z,43.27
2022-11-21T07:27:42.130Z,41.70
2022-11-21T07:32:46.171Z,45.07
2022-11-21T07:37:50.651Z,40.83
2022-11-21T07:42:54.745Z,43.17
2022-11-21T07:48:01.892Z,47.90
2022-11-21T07:53:08.848Z,45.00
2022-11-21T07:58:15.408Z,50.93
2022-11-21T08:03:22.681Z,48.97
2022-11-21T08:08:26.938Z,50.23
2022-11-21T08:13:30.946Z,51.27
2022-11-21T08:18:35.727Z,51.00
2022-11-21T08:23:40.862Z,50.00
2022-11-21T08:28:43.457Z,49.23
2022-11-21T08:33:45.263Z,48.07
2022-11-21T08:38:46.946Z,49.23
2022-11-21T08:43:51.982Z,50.37
2022-11-21T08:48:54.988Z,49.87
2022-11-21T08:53:56.736Z,45.53
2022-11-21T08:59:00.994Z,41.20
2022-11-21T09:04:04.329Z,46.20
2022-11-21T09:09:13.361Z,43.93
2022-11-21T09:14:33.662Z,45.43
2022-11-21T09:19:35.390Z,47.83
2022-11-21T09:24:44.370Z,41.17
2022-11-21T09:29:54.082Z,47.67
2022-11-21T09:34:57.082Z,47.60
2022-11-21T09:39:58.977Z,47.77
2022-11-21T09:45:02.918Z,48.07
2022-11-21T09:50:25.149Z,43.13
2022-11-21T09:55:39.185Z,40.30
2022-11-21T10:00:44.153Z,41.57
2022-11-21T10:05:56.973Z,37.80
2022-11-21T10:11:19.526Z,40.97
2022-11-21T10:16:42.321Z,38.87
2022-11-21T10:22:04.288Z,34.53
2022-11-21T10:27:15.228Z,34.43
2022-11-21T10:32:26.767Z,32.43
2022-11-21T10:37:33.386Z,30.93
2022-11-21T10:42:38.363Z,28.27
2022-11-21T10:47:42.333Z,28.83
2022-11-21T10:52:56.896Z,27.33
2022-11-21T10:57:58.548Z,27.47
2022-11-21T11:03:17.060Z,27.20
2022-11-21T11:08:18.772Z,23.90
2022-11-21T11:13:51.947Z,21.63
2022-11-21T11:19:10.629Z,21.00
2022-11-21T11:24:12.379Z,23.37
2022-11-21T11:29:15.590Z,17.67
2022-11-21T11:34:17.962Z,15.90
2022-11-21T11:39:37.629Z,14.00
2022-11-21T11:45:30.388Z,11.83
2022-11-21T11:50:41.267Z,13.00
2022-11-21T11:56:21.103Z,12.23
2022-11-21T12:01:31.009Z,11.00
2022-11-21T12:08:19.906Z,10.80
2022-11-21T12:12:42.530Z,16.37
2022-11-21T12:18:09.156Z,18.80
2022-11-21T12:23:11.494Z,18.17
2022-11-21T12:28:26.990Z,19.47
2022-11-21T12:33:31.946Z,20.90
2022-11-21T12:38:46.915Z,19.97
2022-11-21T12:44:08.702Z,20.43
2022-11-21T12:49:51.974Z,17.03
2022-11-21T12:55:14.784Z,18.37
2022-11-21T13:00:22.614Z,18.07
2022-11-21T13:05:29.642Z,16.33
2022-11-21T13:10:31.847Z,17.67
2022-11-21T13:16:06.625Z,16.20
2022-11-21T13:21:41.362Z,15.43
2022-11-21T13:26:43.125Z,16.37
2022-11-21T13:31:48.098Z,17.37
2022-11-21T13:36:54.600Z,19.37
2022-11-21T13:42:25.401Z,20.17
2022-11-21T13:48:01.913Z,14.63
2022-11-21T13:53:25.390Z,15.30
2022-11-21T13:58:42.179Z,15.70
2022-11-21T14:04:04.631Z,14.60
2022-11-21T14:09:48.166Z,13.87
2022-11-21T14:15:11.643Z,15.13
2022-11-21T14:20:18.437Z,11.27
2022-11-21T14:25:24.127Z,9.27
2022-11-21T14:30:30.262Z,8.83
2022-11-21T14:35:32.062Z,7.13
2022-11-21T14:40:33.856Z,10.57
2022-11-21T14:45:38.078Z,10.20
2022-11-21T14:50:42.429Z,12.97
2022-11-21T14:55:50.165Z,9.27
2022-11-21T15:01:07.025Z,12.43
2022-11-21T15:06:11.358Z,10.47
2022-11-21T15:11:16.117Z,14.47
2022-11-21T15:16:20.152Z,20.13
2022-11-21T15:21:27.162Z,13.27
2022-11-21T15:26:33.893Z,12.90
2022-11-21T15:31:35.600Z,10.93
2022-11-21T15:36:37.402Z,11.37
2022-11-21T15:41:39.323Z,13.40
2022-11-21T15:46:48.377Z,22.53
2022-11-21T15:52:10.499Z,11.87
2022-11-21T15:57:17.046Z,22.80
2022-11-21T16:02:21.428Z,13.40
2022-11-21T16:07:27.914Z,16.83
2022-11-21T16:12:31.894Z,31.90
2022-11-21T16:17:33.618Z,17.97
2022-11-21T16:22:35.328Z,19.23
2022-11-21T16:27:39.321Z,15.53
2022-11-21T16:32:42.643Z,18.33
2022-11-21T16:37:47.253Z,24.73
2022-11-21T16:42:53.498Z,16.17
2022-11-21T16:47:57.502Z,16.13
2022-11-21T16:53:05.387Z,19.03
2022-11-21T16:58:07.131Z,18.77
2022-11-21T17:03:11.495Z,19.37
2022-11-21T17:08:18.057Z,24.80
2022-11-21T17:13:22.045Z,21.63
2022-11-21T17:18:24.440Z,22.97
2022-11-21T17:23:26.270Z,23.73
2022-11-21T17:28:28.112Z,23.07
2022-11-21T17:33:30.076Z,23.33
2022-11-21T17:38:35.958Z,23.20
2022-11-21T17:43:47.178Z,26.00
2022-11-21T17:48:54.966Z,21.20
2022-11-21T17:54:01.131Z,22.27
2022-11-21T17:59:03.479Z,25.97
2022-11-21T18:04:13.585Z,23.27
2022-11-21T18:09:17.785Z,24.77
2022-11-21T18:14:19.526Z,23.97
2022-11-21T18:19:22.119Z,26.07
2022-11-21T18:24:24.402Z,25.87
2022-11-21T18:29:40.364Z,28.83
2022-11-21T18:34:42.252Z,27.60
2022-11-21T18:39:44.003Z,28.73
2022-11-21T18:44:48.424Z,25.00
2022-11-21T18:49:50.298Z,27.57
2022-11-21T18:54:54.905Z,29.73
2022-11-21T18:59:56.574Z,29.67
2022-11-21T19:05:02.948Z,27.47
2022-11-21T19:10:35.585Z,28.13
2022-11-21T19:15:32.440Z,29.50
2022-11-21T19:20:39.510Z,31.67
2022-11-21T19:25:44.822Z,29.30
2022-11-21T19:30:48.938Z,32.47
2022-11-21T19:35:51.972Z,35.20
2022-11-21T19:41:19.804Z,32.50
2022-11-21T19:46:35.665Z,31.20
2022-11-21T19:51:40.159Z,30.97
2022-11-21T19:56:45.357Z,30.33
2022-11-21T20:01:52.854Z,33.07
2022-11-21T20:06:57.422Z,34.07
2022-11-21T20:12:02.266Z,35.90
2022-11-21T20:17:06.063Z,37.80
2022-11-21T20:22:08.025Z,36.90
2022-11-21T20:27:12.236Z,34.53
2022-11-21T20:32:15.921Z,32.57
2022-11-21T20:37:27.624Z,37.17
2022-11-21T20:42:29.432Z,33.77
2022-11-21T20:47:32.935Z,38.70
2022-11-21T20:58:01.741Z,37.27
2022-11-21T21:03:09.642Z,36.07
2022-11-21T21:08:13.675Z,35.93
2022-11-21T21:13:18.420Z,39.23
2022-11-21T21:18:22.455Z,36.97
2022-11-21T21:23:24.847Z,37.67
2022-11-21T21:28:31.439Z,37.43
2022-11-21T21:33:34.381Z,38.53
2022-11-21T21:38:37.842Z,41.43
2022-11-21T21:43:40.586Z,41.00
2022-11-21T21:48:43.483Z,45.90
2022-11-21T21:53:46.482Z,39.57
2022-11-21T21:58:49.229Z,44.07
2022-11-21T22:03:58.368Z,42.77
2022-11-21T22:09:06.117Z,41.60
2022-11-21T22:14:11.972Z,46.03
2022-11-21T22:19:16.040Z,41.97
2022-11-21T22:24:27.733Z,46.37
2022-11-21T22:29:33.683Z,42.97
2022-11-21T22:34:40.131Z,45.07
2022-11-21T22:39:45.312Z,44.87
2022-11-21T22:44:49.281Z,45.60
2022-11-21T22:49:55.579Z,45.27
2022-11-21T22:55:02.059Z,41.33
2022-11-21T23:00:09.328Z,43.67
2022-11-21T23:05:11.011Z,40.50
2022-11-21T23:10:16.190Z,42.17
2022-11-21T23:15:23.611Z,43.83
2022-11-21T23:20:25.776Z,43.90
2022-11-21T23:25:27.438Z,44.97
2022-11-21T23:30:32.642Z,45.97
2022-11-21T23:35:40.192Z,47.13
2022-11-21T23:40:44.408Z,47.07
2022-11-21T23:45:50.813Z,50.00
2022-11-21T23:50:55.077Z,55.40
2022-11-21T23:55:59.139Z,53.37
